• Join FlightAware (Why Join?)
  • Login
  • US Flag 
06:40PM EST


 

Airport Tracker/Info


-or-


 

Live Flight TrackerFlight Track Log ✈ N507PD ✈ 24-Apr-2013 ✈ KSUS - KHAO

Flight Track Log - Related Links

Times and Time Zones

All times are in EDT time to prevent confusion due to time zone crossing. See the N507PD flight status page for this flight to view local times or setup timezone preferences in your user account.

Time Position Orientation Groundspeed Altitude Reporting Facility
EDT Latitude Longitude Course Direction KTS MPH feet Rate Location/Type
02:01PM 38.6481 -90.6222 215° Southwest 187 215 1,700  Level FAA TRACON SMA TRACON (SMA)
02:02PM 38.6333 -90.6353 215° Southwest 216 249 2,500 3,120 Climbing FAA TRACON SMA TRACON (SMA)
02:02PM 38.6103 -90.6292 168° South 238 274 3,800 3,780 Climbing FAA TRACON SMA TRACON (SMA)
02:02PM 38.5958 -90.6078 131° Southeast 253 291 4,900 3,660 Climbing FAA TRACON SMA TRACON (SMA)
02:03PM 38.5911 -90.5797 102° East 266 306 6,200 4,140 Climbing FAA TRACON SMA TRACON (SMA)
02:03PM 38.5936 -90.5439 85° East 268 308 7,800 4,200 Climbing FAA TRACON SMA TRACON (SMA)
02:03PM 38.5981 -90.5144 79° East 270 311 9,100 3,900 Climbing FAA TRACON SMA TRACON (SMA)
02:04PM 38.6039 -90.4856 76° East 272 313 10,300 4,200 Climbing FAA TRACON SMA TRACON (SMA)
02:04PM 38.6108 -90.4481 77° East 281 323 11,900 4,200 Climbing FAA TRACON SMA TRACON (SMA)
02:04PM 38.6158 -90.4164 79° East 292 336 13,100 3,060 Climbing FAA TRACON SMA TRACON (SMA)
02:05PM 38.6203 -90.3817 81° East 314 361 13,900 2,460 Climbing FAA TRACON SMA TRACON (SMA)
02:05PM 38.6272 -90.3339 79° East 350 403 14,800 1,560 Climbing FAA TRACON SMA TRACON (SMA)
02:05PM 38.6347 -90.2914 77° East 387 445 15,000 300 Climbing FAA TRACON SMA TRACON (SMA)
02:06PM 38.6464 -90.2358 75° East 419 482 15,000  Level FAA TRACON SMA TRACON (SMA)
02:06PM 38.6547 -90.1922 76° East 416 479 15,000  Level FAA TRACON SMA TRACON (SMA)
02:06PM 38.6633 -90.1497 75° East 407 468 15,000  Level FAA TRACON SMA TRACON (SMA)
02:07PM 38.6747 -90.0969 75° East 399 459 15,000 120 Level FAA TRACON SMA TRACON (SMA)
02:07PM 38.6828 -90.0544 76° East 397 457 15,100 1,020 Climbing FAA TRACON SMA TRACON (SMA)
02:07PM 38.6900 -90.0117 78° East 401 461 15,700 2,100 Climbing FAA TRACON SMA TRACON (SMA)
02:08PM 38.7000 -89.9569 77° East 408 470 16,500 2,100 Climbing FAA TRACON SMA TRACON (SMA)
02:08PM 38.7081 -89.9119 77° East 418 481 17,100 1,920 Climbing FAA TRACON SMA TRACON (SMA)
02:08PM 38.7169 -89.8669 76° East 423 487 17,800 2,460 Climbing FAA TRACON SMA TRACON (SMA)
02:09PM 38.7264 -89.8097 78° East 428 493 18,800 2,760 Climbing FAA TRACON SMA TRACON (SMA)
02:09PM 38.7344 -89.7633 77° East 432 497 19,700 2,760 Climbing FAA TRACON SMA TRACON (SMA)
02:09PM 38.7428 -89.7169 77° East 435 501 20,600 2,820 Climbing FAA TRACON SMA TRACON (SMA)
02:10PM 38.7542 -89.6592 76° East 435 501 21,600 2,760 Climbing FAA TRACON SMA TRACON (SMA)
02:10PM 38.7617 -89.6119 78° East 438 504 22,500 3,000 Climbing FAA TRACON SMA TRACON (SMA)
02:10PM 38.7736 -89.5533 75° East 442 509 23,600 2,880 Climbing FAA TRACON SMA TRACON (SMA)
02:11PM 38.7825 -89.5058 76° East 444 511 24,400 2,580 Climbing FAA TRACON SMA TRACON (SMA)
02:11PM 38.7900 -89.4578 79° East 447 514 25,300 2,700 Climbing FAA TRACON SMA TRACON (SMA)
02:11PM 38.7950 -89.4094 82° East 447 514 26,200 2,760 Climbing FAA TRACON SMA TRACON (SMA)
02:12PM 38.8017 -89.3492 82° East 446 513 27,200 2,760 Climbing FAA TRACON SMA TRACON (SMA)
02:12PM 38.8097 -89.3011 78° East 447 514 28,100 2,580 Climbing FAA TRACON SMA TRACON (SMA)
02:12PM 38.8164 -89.2536 80° East 444 511 28,900 1,320 Climbing FAA TRACON SMA TRACON (SMA)
02:13PM 38.8247 -89.1917 80° East 454 522 29,000 120 Climbing FAA TRACON SMA TRACON (SMA)
02:13PM 38.8314 -89.1400 81° East 474 545 29,000  Level FAA TRACON SMA TRACON (SMA)
02:13PM 38.8425 -89.0731 78° East 498 573 29,000  Level FAA TRACON SMA TRACON (SMA)
02:14PM 38.8425 -89.0731 90° East 498 573 29,000  Level FAA TRACON SMA TRACON (SMA)
02:14PM 38.8556 -89.0028 77° East 513 590 29,000 1,680 Level Kansas City Center
02:15PM 38.8261 -88.8233 102° East 497 572 31,600 1,920 Climbing Kansas City Center
02:16PM 38.7953 -88.6650 104° East 465 535 33,000 660 Climbing Kansas City Center
02:17PM 38.7767 -88.4947 98° East 475 547 33,000  Level Kansas City Center
02:18PM 38.7697 -88.3058 93° East 503 579 33,000  Level Kansas City Center
02:19PM 38.7600 -88.1208 94° East 514 592 33,000  Level Kansas City Center
02:20PM 38.7478 -87.9025 94° East 513 590 33,000  Level Kansas City Center
02:21PM 38.7375 -87.7178 94° East 515 593 33,000 -300 Level Kansas City Center
02:23PM 38.7258 -87.5356 95° East 511 588 32,500 -840 Descending Kansas City Center
02:24PM 38.7125 -87.3542 95° East 514 592 31,300 -1,380 Descending Indianapolis Center
02:25PM 38.6975 -87.1356 95° East 509 586 29,600 -1,620 Descending Indianapolis Center
02:26PM 38.6861 -86.9522 94° East 508 585 28,000 -1,560 Descending Indianapolis Center
02:27PM 38.6731 -86.7669 95° East 514 592 26,500 -1,500 Descending Indianapolis Center
02:28PM 38.6589 -86.5853 96° East 508 585 25,000 -1,500 Descending Indianapolis Center
02:29PM 38.6478 -86.4114 95° East 491 565 23,400 -1,320 Descending Indianapolis Center
02:30PM 38.6356 -86.2494 95° East 461 531 22,400 -1,080 Descending Indianapolis Center
02:31PM 38.6228 -86.0933 96° East 446 513 21,300 -1,200 Descending Indianapolis Center
02:32PM 38.6122 -85.9367 95° East 440 506 20,000 -1,380 Descending Indianapolis Center
02:33PM 38.5997 -85.7725 96° East 454 522 18,500 -1,860 Descending Indianapolis Center
02:34PM 38.6039 -85.6114 88° East 464 534 16,200 -2,400 Descending Indianapolis Center
02:35PM 38.6667 -85.4689 61° Northeast 434 499 13,600 -2,040 Descending Indianapolis Center
02:36PM 38.7228 -85.3489 59° Northeast 395 455 12,000 -780 Descending Indianapolis Center
02:37PM 38.8142 -85.2528 39° Northeast 368 423 12,000 -180 Level Indianapolis Center
02:38PM 38.8969 -85.1619 40° Northeast 385 443 11,700 -840 Descending Indianapolis Center
02:39PM 38.9767 -85.0764 40° Northeast 376 433 10,300 -1,560 Descending Indianapolis Center
02:40PM 39.0550 -84.9903 40° Northeast 368 423 8,500 -1,560 Descending Indianapolis Center
02:41PM 39.1194 -84.9164 42° Northeast 319 367 7,100 -1,020 Descending Indianapolis Center
02:42PM 39.1667 -84.8500 47° Northeast 294 338 6,700 -900 Descending Cincinnati TRACON
02:43PM 39.2167 -84.7833 46° Northeast 304 350 5,700 -1,080 Descending Cincinnati TRACON
02:44PM 39.2667 -84.7000 52° Northeast 281 323 4,700 -1,080 Descending Cincinnati TRACON
02:45PM 39.2833 -84.6000 78° East 282 325 3,700 -420 Descending Cincinnati TRACON
02:45PM 39.2836 -84.5694 89° East 301 346 4,100 -360 Climbing Indianapolis Center
02:47PM 39.2833 -84.4167 90° East 242 278 3,000 -420 Descending Cincinnati TRACON
02:48PM 39.2500 -84.3333 117° Southeast 239 275 3,000  Level Cincinnati TRACON
02:48PM 39.2417 -84.3153 121° Southeast 233 268 3,000  Level Indianapolis Center
02:49PM 39.2847 -84.3036 12° North 190 219 3,000 9,660 Level Indianapolis Center
02:50PM 39.3161 -84.3539 309° West 187 215 23,000 -360 Climbing Indianapolis Center
02:52PM 39.3333 -84.4167 290° West 120 138 2,200 -13,020 Descending Cincinnati TRACON